Time;durP1;ratioP1;P1;durP2;ratioP2;P2;SDS_P1;SDS_P2;PMS_P1;PMS_P2;Temp;Humidity;BMP_temperature;BMP_pressure;BME280_temperature;BME280_humidity;BME280_pressure;Samples;Min_cycle;Max_cycle;Signal;HPM_P1;HPM_P2
2022/06/23 00:01:14;;;;;;;12.48;7.25;;;;;;;17.48;98.53;101157.56;5062146;28;20377;-49
2022/06/23 00:03:42;;;;;;;15.48;7.57;;;;;;;17.44;99.10;101155.31;5061346;28;20102;-51
2022/06/23 00:06:36;;;;;;;13.98;6.70;;;;;;;17.45;98.96;101154.34;5062250;28;20044;-50
2022/06/23 00:09:35;;;;;;;16.33;7.40;;;;;;;17.37;99.63;101142.59;5058818;28;20049;-47
2022/06/23 00:12:20;;;;;;;14.13;7.55;;;;;;;17.35;99.25;101144.53;5056244;28;20037;-45
2022/06/23 00:14:50;;;;;;;13.38;7.78;;;;;;;17.20;100.00;101148.56;5065937;28;20067;-49
2022/06/23 00:17:24;;;;;;;14.30;7.47;;;;;;;17.28;99.54;101140.75;5059753;28;20045;-47
2022/06/23 00:19:53;;;;;;;14.60;8.23;;;;;;;17.24;100.00;101139.34;5050932;28;20507;-48
2022/06/23 00:22:25;;;;;;;14.98;7.65;;;;;;;17.18;100.00;101137.22;5058788;28;20041;-49
2022/06/23 00:24:57;;;;;;;12.68;7.97;;;;;;;17.16;100.00;101141.84;5069009;28;20461;-46
2022/06/23 00:27:30;;;;;;;14.87;7.87;;;;;;;17.11;100.00;101136.06;5059552;28;20102;-47
2022/06/23 00:30:01;;;;;;;15.23;7.53;;;;;;;17.18;100.00;101147.88;5061759;28;20051;-50
2022/06/23 00:32:31;;;;;;;14.85;8.13;;;;;;;17.03;100.00;101145.56;5062572;28;20514;-47
2022/06/23 00:35:01;;;;;;;13.38;7.60;;;;;;;17.09;100.00;101146.84;5060204;28;20044;-47
2022/06/23 00:37:30;;;;;;;14.90;7.65;;;;;;;16.94;100.00;101143.72;5061951;28;20098;-46
2022/06/23 00:40:00;;;;;;;14.27;8.20;;;;;;;17.05;100.00;101134.81;5066220;28;20090;-51
2022/06/23 00:42:31;;;;;;;15.13;8.13;;;;;;;17.04;100.00;101138.44;5057687;28;20055;-50
2022/06/23 00:45:05;;;;;;;15.25;8.23;;;;;;;17.00;100.00;101129.03;5068813;28;20063;-47
2022/06/23 00:47:41;;;;;;;14.88;7.97;;;;;;;16.98;100.00;101138.97;5069960;28;20053;-50
2022/06/23 00:50:23;;;;;;;14.70;8.55;;;;;;;16.94;100.00;101130.44;5063032;28;20535;-50
2022/06/23 00:52:58;;;;;;;16.30;8.35;;;;;;;16.90;100.00;101129.03;5072450;28;20049;-48
2022/06/23 00:55:47;;;;;;;17.02;8.45;;;;;;;16.85;100.00;101125.88;5064070;28;20044;-48
2022/06/23 00:58:28;;;;;;;16.70;9.30;;;;;;;16.81;100.00;101124.47;5068701;28;20075;-49
2022/06/23 01:01:13;;;;;;;18.20;8.65;;;;;;;16.79;100.00;101124.63;5069038;28;20044;-50
2022/06/23 01:03:51;;;;;;;17.25;9.30;;;;;;;16.85;100.00;101121.44;5061858;28;20095;-46
2022/06/23 01:06:29;;;;;;;12.15;8.18;;;;;;;16.77;100.00;101117.75;5066929;28;20399;-47
2022/06/23 01:09:03;;;;;;;15.43;9.05;;;;;;;16.78;100.00;101122.09;5070904;28;20047;-49
2022/06/23 01:11:37;;;;;;;13.65;8.20;;;;;;;16.73;100.00;101125.16;5067762;28;20037;-46
2022/06/23 01:14:20;;;;;;;14.73;9.30;;;;;;;16.72;100.00;101124.31;5062630;28;20044;-53
2022/06/23 01:16:52;;;;;;;15.90;9.60;;;;;;;16.71;100.00;101119.13;5061493;28;20131;-49
2022/06/23 01:19:52;;;;;;;15.53;9.57;;;;;;;16.62;100.00;101122.56;5064807;28;20048;-46
2022/06/23 01:22:41;;;;;;;15.15;8.63;;;;;;;16.59;100.00;101117.53;5069545;28;20186;-49
2022/06/23 01:25:30;;;;;;;17.13;9.18;;;;;;;16.56;100.00;101123.94;5061783;28;20052;-46
2022/06/23 01:28:08;;;;;;;17.63;9.80;;;;;;;16.54;100.00;101121.44;5054531;28;20064;-49
2022/06/23 01:30:44;;;;;;;15.07;9.32;;;;;;;16.55;100.00;101124.91;5059312;28;20048;-49
2022/06/23 01:33:17;;;;;;;16.05;9.82;;;;;;;16.41;100.00;101110.19;5063260;28;20044;-47
2022/06/23 01:35:48;;;;;;;;;;;;;;;16.42;100.00;101127.78;5073647;28;20446;-48
2022/06/23 01:38:21;;;;;;;19.08;9.52;;;;;;;16.41;100.00;101131.41;5053443;28;19928;-45
2022/06/23 01:40:56;;;;;;;15.90;9.57;;;;;;;16.36;100.00;101133.63;5069144;28;20372;-49
2022/06/23 01:43:32;;;;;;;15.93;9.32;;;;;;;16.46;100.00;101131.88;5067763;28;20107;-47
2022/06/23 01:46:05;;;;;;;13.43;8.63;;;;;;;16.44;100.00;101127.66;5053223;28;20048;-48
2022/06/23 01:48:53;;;;;;;16.55;9.82;;;;;;;16.38;100.00;101126.38;5060001;28;20060;-48
2022/06/23 01:51:28;;;;;;;14.20;9.10;;;;;;;16.34;100.00;101125.78;5054362;28;20049;-48
2022/06/23 01:54:09;;;;;;;18.08;9.50;;;;;;;16.34;100.00;101124.97;5053376;28;20048;-47
2022/06/23 01:56:53;;;;;;;14.45;9.43;;;;;;;16.27;100.00;101119.34;5054017;28;20067;-47
2022/06/23 01:59:57;;;;;;;16.13;9.68;;;;;;;16.13;100.00;101117.84;5068674;28;20069;-47
2022/06/23 02:02:40;;;;;;;13.95;9.45;;;;;;;16.20;100.00;101118.19;5021245;28;20045;-46
2022/06/23 02:05:15;;;;;;;15.45;10.10;;;;;;;16.17;100.00;101118.41;5059999;28;20079;-47
2022/06/23 02:07:48;;;;;;;14.55;9.75;;;;;;;16.15;100.00;101115.06;5066837;28;20049;-49
2022/06/23 02:10:22;;;;;;;;;;;;;;;16.14;100.00;101106.28;5062428;28;20056;-48
2022/06/23 02:12:56;;;;;;;16.40;9.35;;;;;;;16.12;100.00;101104.72;5058418;28;20544;-46
2022/06/23 02:15:32;;;;;;;15.25;9.48;;;;;;;16.07;100.00;101098.97;5061008;28;20141;-51
2022/06/23 02:18:12;;;;;;;16.52;8.93;;;;;;;16.04;100.00;101106.19;5061080;28;20040;-49
2022/06/23 02:20:44;;;;;;;14.50;10.30;;;;;;;15.98;100.00;101104.06;5058366;28;20503;-47
2022/06/23 02:23:20;;;;;;;14.88;10.20;;;;;;;16.04;100.00;101100.06;5070278;28;20131;-47
2022/06/23 02:25:55;;;;;;;18.77;9.90;;;;;;;15.99;100.00;101095.16;5064075;28;20079;-48
2022/06/23 02:28:33;;;;;;;19.40;9.85;;;;;;;15.99;100.00;101097.81;5071102;28;20407;-47
2022/06/23 02:31:12;;;;;;;18.05;10.20;;;;;;;15.97;100.00;101094.41;5071395;28;20124;-49
2022/06/23 02:33:50;;;;;;;17.80;10.07;;;;;;;16.00;100.00;101098.63;5064376;28;20046;-48
2022/06/23 02:36:37;;;;;;;14.75;9.43;;;;;;;15.96;100.00;101102.50;5070490;28;20055;-46
2022/06/23 02:39:11;;;;;;;13.93;9.38;;;;;;;15.96;100.00;101099.84;5079069;28;20058;-48
2022/06/23 02:41:43;;;;;;;15.32;9.30;;;;;;;15.99;100.00;101092.50;5059205;28;20102;-51
2022/06/23 02:44:38;;;;;;;16.35;9.50;;;;;;;15.99;100.00;101089.84;5071083;28;20044;-49
2022/06/23 02:47:26;;;;;;;12.93;9.13;;;;;;;15.93;100.00;101087.69;5063188;28;20050;-48
2022/06/23 02:50:32;;;;;;;13.82;8.77;;;;;;;15.89;100.00;101088.91;5065052;28;20075;-47
2022/06/23 02:53:28;;;;;;;17.10;9.05;;;;;;;15.86;100.00;101089.19;5057771;28;20128;-47
2022/06/23 02:56:15;;;;;;;14.35;9.13;;;;;;;15.88;100.00;101092.53;5065452;28;20051;-46
2022/06/23 02:58:50;;;;;;;15.63;9.40;;;;;;;15.88;100.00;101093.41;5062852;28;20392;-46
2022/06/23 03:01:25;;;;;;;15.32;9.73;;;;;;;15.93;100.00;101100.13;5070012;28;20044;-50
2022/06/23 03:04:04;;;;;;;15.05;9.27;;;;;;;15.93;100.00;101098.31;5059764;28;20047;-47
2022/06/23 03:06:41;;;;;;;14.27;8.65;;;;;;;15.89;100.00;101100.34;5067132;28;20117;-48
2022/06/23 03:09:14;;;;;;;15.93;8.88;;;;;;;15.91;100.00;101097.59;5051974;28;20049;-50
2022/06/23 03:11:52;;;;;;;17.98;8.98;;;;;;;15.97;100.00;101107.69;5060304;28;20052;-47
2022/06/23 03:14:32;;;;;;;16.90;9.02;;;;;;;15.87;100.00;101107.63;5070365;28;20045;-45
2022/06/23 03:17:13;;;;;;;16.08;8.73;;;;;;;15.86;100.00;101097.13;5055382;28;20131;-47
2022/06/23 03:19:47;;;;;;;16.85;9.40;;;;;;;15.86;100.00;101100.63;5061268;28;20087;-47
2022/06/23 03:22:23;;;;;;;13.82;8.95;;;;;;;15.84;100.00;101101.72;5055718;28;20049;-48
2022/06/23 03:25:09;;;;;;;19.05;9.25;;;;;;;15.81;100.00;101101.97;5059461;28;20085;-45
2022/06/23 03:27:46;;;;;;;14.70;9.32;;;;;;;15.72;100.00;101107.06;5052226;28;20045;-48
2022/06/23 03:30:20;;;;;;;15.02;8.70;;;;;;;15.75;100.00;101107.75;5061754;28;20044;-49
2022/06/23 03:32:53;;;;;;;14.20;8.95;;;;;;;15.75;100.00;101107.75;5055553;28;20135;-50
2022/06/23 03:35:29;;;;;;;16.13;9.02;;;;;;;15.80;100.00;101101.16;5053662;28;20131;-48
2022/06/23 03:38:06;;;;;;;16.70;9.13;;;;;;;15.83;100.00;101094.75;5062956;28;20040;-48
2022/06/23 03:43:40;;;;;;;15.75;9.38;;;;;;;15.63;100.00;101094.56;5060849;28;20055;-50
2022/06/23 03:46:20;;;;;;;14.07;9.45;;;;;;;15.67;100.00;101088.03;5055391;28;20041;-47
2022/06/23 03:48:53;;;;;;;14.35;9.55;;;;;;;15.65;100.00;101097.06;5062975;28;20045;-51
2022/06/23 03:51:29;;;;;;;14.35;9.25;;;;;;;15.63;100.00;101091.91;5060751;28;20064;-51
2022/06/23 03:54:04;;;;;;;16.48;8.68;;;;;;;15.62;100.00;101084.91;5064619;28;20399;-50
2022/06/23 03:56:36;;;;;;;15.48;8.95;;;;;;;15.64;100.00;101090.09;5060697;28;20041;-46
2022/06/23 03:59:10;;;;;;;;;;;;;;;15.70;100.00;101084.28;5064176;28;20052;-48
2022/06/23 04:01:46;;;;;;;15.45;8.77;;;;;;;15.59;100.00;101082.50;5068621;28;19920;-49
2022/06/23 04:04:18;;;;;;;16.52;9.25;;;;;;;15.61;100.00;101085.91;5065629;28;20147;-48
2022/06/23 04:06:50;;;;;;;16.38;9.45;;;;;;;15.62;100.00;101092.84;5069719;28;20132;-47
2022/06/23 04:09:21;;;;;;;17.90;9.02;;;;;;;15.64;100.00;101082.16;5063438;28;20524;-47
2022/06/23 04:12:03;;;;;;;16.45;8.75;;;;;;;15.69;100.00;101082.59;5060399;28;20048;-50
2022/06/23 04:14:42;;;;;;;13.63;8.48;;;;;;;15.75;100.00;101084.75;5070196;28;20037;-45
2022/06/23 04:17:17;;;;;;;14.98;8.98;;;;;;;15.75;100.00;101084.75;5063374;28;20052;-47
2022/06/23 04:19:51;;;;;;;15.48;9.15;;;;;;;15.75;100.00;101083.88;5061026;28;20049;-48
2022/06/23 04:22:25;;;;;;;13.55;8.75;;;;;;;15.78;100.00;101081.00;5064201;28;20057;-49
2022/06/23 04:25:00;;;;;;;16.55;9.15;;;;;;;15.75;100.00;101073.28;5062278;28;20523;-48
2022/06/23 04:27:32;;;;;;;16.27;9.55;;;;;;;15.79;100.00;101066.75;5066541;28;20052;-48
2022/06/23 04:30:01;;;;;;;13.35;8.85;;;;;;;15.82;100.00;101077.16;5064106;28;20051;-51
2022/06/23 04:32:32;;;;;;;14.32;8.50;;;;;;;15.82;100.00;101069.19;5062650;28;20095;-50
2022/06/23 04:35:08;;;;;;;15.98;8.77;;;;;;;15.76;100.00;101067.88;5070200;28;20479;-48
2022/06/23 04:37:47;;;;;;;14.70;8.95;;;;;;;15.83;100.00;101076.19;5073838;28;20040;-48
2022/06/23 04:40:23;;;;;;;19.00;9.20;;;;;;;15.87;100.00;101077.63;5072325;28;20098;-47
2022/06/23 04:42:57;;;;;;;15.52;8.30;;;;;;;15.97;100.00;101078.50;5062552;28;20053;-48
2022/06/23 04:45:48;;;;;;;15.27;9.25;;;;;;;15.93;100.00;101078.91;5064698;28;20139;-49
2022/06/23 04:48:23;;;;;;;12.88;8.80;;;;;;;15.93;100.00;101085.03;5065683;28;20090;-50
2022/06/23 04:50:58;;;;;;;16.13;8.93;;;;;;;15.92;100.00;101080.69;5059994;28;20040;-46
2022/06/23 04:53:39;;;;;;;14.25;8.43;;;;;;;16.02;100.00;101078.97;5063146;28;20048;-49
2022/06/23 04:56:19;;;;;;;15.27;8.48;;;;;;;16.05;100.00;101077.88;5060975;28;20041;-46
2022/06/23 04:58:52;;;;;;;17.27;8.65;;;;;;;16.10;100.00;101082.78;5056464;28;20060;-49
2022/06/23 05:01:25;;;;;;;15.45;9.00;;;;;;;16.07;100.00;101091.00;5057875;28;20107;-46
2022/06/23 05:03:58;;;;;;;14.93;8.40;;;;;;;16.12;100.00;101097.59;5065894;28;20067;-50
2022/06/23 05:06:37;;;;;;;15.85;9.20;;;;;;;16.19;100.00;101103.22;5065042;28;20407;-50
2022/06/23 05:09:15;;;;;;;12.18;8.38;;;;;;;16.23;99.76;101091.38;5066457;28;20041;-49
2022/06/23 05:11:48;;;;;;;11.55;8.25;;;;;;;16.35;99.31;101089.50;5071278;28;20078;-49
2022/06/23 05:14:23;;;;;;;13.48;8.57;;;;;;;16.33;97.78;101094.94;5061723;28;20500;-48
2022/06/23 05:16:54;;;;;;;16.70;9.32;;;;;;;16.40;98.42;101092.56;5057802;28;20051;-46
2022/06/23 05:19:28;;;;;;;15.55;9.05;;;;;;;16.45;97.46;101095.69;5061327;28;20572;-48
2022/06/23 05:21:58;;;;;;;;;;;;;;;16.46;97.77;101091.22;5064386;28;20435;-51
2022/06/23 05:24:35;;;;;;;15.93;9.27;;;;;;;16.53;96.99;101089.72;5067638;28;20372;-46
2022/06/23 05:27:07;;;;;;;14.40;8.90;;;;;;;16.64;97.82;101102.06;5071589;28;20040;-50
2022/06/23 05:29:39;;;;;;;16.90;9.77;;;;;;;16.71;96.01;101089.91;5073075;28;20426;-49
2022/06/23 05:32:15;;;;;;;13.73;8.95;;;;;;;16.79;96.75;101090.09;5072116;28;20044;-48
2022/06/23 05:34:49;;;;;;;15.02;10.15;;;;;;;16.86;95.74;101093.88;5072172;28;20090;-47
2022/06/23 05:37:23;;;;;;;16.90;10.27;;;;;;;16.89;94.80;101090.16;5060264;28;20045;-47
2022/06/23 05:40:01;;;;;;;15.20;9.30;;;;;;;16.95;95.33;101089.63;5068277;28;20051;-51
2022/06/23 05:42:31;;;;;;;17.55;9.25;;;;;;;17.07;94.99;101079.72;5056664;28;20043;-49
2022/06/23 05:45:05;;;;;;;18.17;9.73;;;;;;;17.17;94.11;101082.41;5071644;28;20049;-46
2022/06/23 05:47:34;;;;;;;15.50;9.05;;;;;;;17.30;93.37;101080.31;5057853;28;20052;-48
2022/06/23 05:50:06;;;;;;;17.15;9.00;;;;;;;17.35;93.02;101083.38;5056984;28;20041;-53
2022/06/23 05:52:41;;;;;;;17.50;8.87;;;;;;;17.47;92.42;101084.09;5057416;28;20045;-47
2022/06/23 05:55:18;;;;;;;14.15;8.20;;;;;;;17.60;92.33;101078.53;5070404;28;20057;-50
2022/06/23 05:57:54;;;;;;;14.88;9.05;;;;;;;17.71;90.57;101097.00;5066698;28;20068;-48
2022/06/23 06:00:28;;;;;;;18.67;9.02;;;;;;;17.82;89.53;101097.81;5069949;28;20063;-51
2022/06/23 06:03:01;;;;;;;15.60;9.30;;;;;;;17.88;88.21;101094.59;5061181;28;20040;-49
2022/06/23 06:05:34;;;;;;;18.60;9.38;;;;;;;17.90;88.51;101087.28;5066496;28;20179;-51
2022/06/23 06:08:07;;;;;;;13.57;9.40;;;;;;;17.93;87.47;101087.06;5061361;28;20098;-51
2022/06/23 06:10:37;;;;;;;13.48;9.07;;;;;;;18.01;87.73;101089.84;5067774;28;20045;-49
2022/06/23 06:13:12;;;;;;;14.27;8.60;;;;;;;18.16;87.80;101087.59;5067148;28;20051;-53
2022/06/23 06:15:46;;;;;;;12.88;8.27;;;;;;;18.37;86.36;101081.22;5070707;28;20048;-51
2022/06/23 06:18:21;;;;;;;12.60;8.02;;;;;;;18.53;85.59;101083.28;5071495;28;20045;-50
2022/06/23 06:20:50;;;;;;;11.80;7.88;;;;;;;18.67;85.16;101085.44;5064473;28;20055;-49
2022/06/23 06:23:24;;;;;;;13.55;8.30;;;;;;;18.80;84.46;101077.13;5056716;28;20556;-50
2022/06/23 06:25:54;;;;;;;13.50;7.47;;;;;;;18.97;83.57;101074.69;5056828;28;20532;-51
2022/06/23 06:28:25;;;;;;;15.07;8.63;;;;;;;19.03;82.82;101077.59;5062453;28;20051;-50
2022/06/23 06:31:01;;;;;;;14.98;8.50;;;;;;;19.18;82.20;101074.38;5063800;28;20041;-52
2022/06/23 06:33:38;;;;;;;12.77;7.25;;;;;;;19.37;81.24;101074.25;5062038;28;20048;-47
2022/06/23 06:36:24;;;;;;;12.18;7.75;;;;;;;19.54;79.67;101063.75;5070727;28;20555;-50
2022/06/23 06:38:52;;;;;;;15.57;7.95;;;;;;;19.63;78.46;101062.78;5067259;28;20041;-48
2022/06/23 06:41:21;;;;;;;13.93;7.45;;;;;;;19.76;78.89;101057.91;5059015;28;20044;-48
2022/06/23 06:43:50;;;;;;;20.00;8.70;;;;;;;19.88;77.13;101068.38;5059959;28;20484;-50
2022/06/23 06:46:18;;;;;;;14.73;7.78;;;;;;;19.99;77.08;101073.47;5059185;28;20377;-48
2022/06/23 06:48:46;;;;;;;15.70;8.00;;;;;;;20.14;76.29;101079.06;5059377;28;20051;-48
2022/06/23 06:51:21;;;;;;;13.57;8.23;;;;;;;20.30;76.19;101075.66;5058132;28;20057;-53
2022/06/23 06:53:53;;;;;;;12.38;7.47;;;;;;;20.51;72.56;101080.59;5061321;28;20048;-49
2022/06/23 06:56:27;;;;;;;12.38;7.45;;;;;;;20.63;73.19;101088.31;5063799;28;20048;-51
2022/06/23 06:59:02;;;;;;;11.88;6.82;;;;;;;20.79;72.68;101087.59;5059148;28;20056;-53
2022/06/23 07:01:34;;;;;;;11.82;6.88;;;;;;;21.01;73.16;101086.16;5066378;28;20102;-49
2022/06/23 07:04:03;;;;;;;11.90;6.43;;;;;;;21.19;70.28;101089.56;5062487;28;20082;-51
2022/06/23 07:06:37;;;;;;;9.80;6.50;;;;;;;21.34;70.75;101087.09;5062787;28;20044;-54
2022/06/23 07:09:12;;;;;;;12.80;7.05;;;;;;;21.51;68.56;101085.25;5069289;28;20060;-48
2022/06/23 07:11:50;;;;;;;11.48;6.32;;;;;;;21.68;67.17;101085.28;5055715;28;20057;-48
2022/06/23 07:14:25;;;;;;;11.00;6.32;;;;;;;21.85;67.04;101086.94;5056405;28;20106;-48
2022/06/23 07:16:59;;;;;;;12.07;7.00;;;;;;;22.01;66.12;101077.25;5061884;28;20403;-48
2022/06/23 07:19:34;;;;;;;11.57;6.63;;;;;;;22.17;66.27;101079.03;5065232;28;20107;-52
2022/06/23 07:22:12;;;;;;;10.20;6.82;;;;;;;22.31;64.05;101072.19;5068370;28;20048;-52
2022/06/23 07:24:49;;;;;;;12.52;6.75;;;;;;;22.48;64.17;101063.06;5070153;28;20049;-47
2022/06/23 07:27:30;;;;;;;12.02;6.93;;;;;;;22.62;63.40;101065.03;5062369;28;20059;-51
2022/06/23 07:30:02;;;;;;;10.60;6.70;;;;;;;22.85;62.91;101066.97;5053829;28;20045;-52
2022/06/23 07:32:37;;;;;;;14.23;7.65;;;;;;;22.90;61.73;101066.44;5065821;28;20048;-53
2022/06/23 07:35:18;;;;;;;9.77;6.03;;;;;;;23.17;61.86;101067.81;5052360;28;20106;-51
2022/06/23 07:37:53;;;;;;;12.70;7.35;;;;;;;23.36;60.27;101066.50;5070487;28;20043;-49
2022/06/23 07:40:24;;;;;;;13.07;6.22;;;;;;;23.42;59.57;101059.56;5066394;28;20067;-49
2022/06/23 07:43:00;;;;;;;10.90;6.20;;;;;;;23.66;59.67;101055.88;5066461;28;20044;-51
2022/06/23 07:45:33;;;;;;;10.80;6.47;;;;;;;23.74;58.96;101066.53;5061438;28;20052;-48
2022/06/23 07:48:01;;;;;;;;;;;;;;;23.99;59.71;101060.13;5069744;28;20040;-50
2022/06/23 07:50:30;;;;;;;11.43;6.40;;;;;;;24.11;57.57;101061.34;5059256;28;19921;-49
2022/06/23 07:52:59;;;;;;;9.90;5.50;;;;;;;24.26;57.10;101064.84;5056962;28;20091;-51
2022/06/23 07:55:29;;;;;;;11.35;6.43;;;;;;;24.34;57.73;101061.25;5062486;28;20128;-50
2022/06/23 07:58:18;;;;;;;12.10;5.63;;;;;;;24.61;56.87;101058.91;5068538;28;20453;-51
2022/06/23 08:00:49;;;;;;;12.40;5.68;;;;;;;24.69;56.19;101053.47;5058862;28;20542;-52
2022/06/23 08:03:26;;;;;;;9.30;5.25;;;;;;;24.88;55.66;101048.50;5067434;28;20082;-49
2022/06/23 08:05:59;;;;;;;8.60;5.32;;;;;;;25.08;55.64;101044.16;5062570;28;20111;-50
2022/06/23 08:08:31;;;;;;;11.77;5.75;;;;;;;25.26;54.62;101041.03;5051867;28;20037;-50
2022/06/23 08:13:56;;;;;;;10.05;5.40;;;;;;;25.56;54.57;101040.09;5052062;28;20067;-49
2022/06/23 08:19:19;;;;;;;9.43;4.97;;;;;;;26.02;53.01;101031.53;5052014;28;20387;-51
2022/06/23 08:21:51;;;;;;;11.27;5.57;;;;;;;26.27;52.19;101028.38;5051998;28;20045;-51
2022/06/23 08:24:23;;;;;;;9.45;5.43;;;;;;;26.47;52.57;101029.28;5051833;28;20037;-48
2022/06/23 08:26:55;;;;;;;10.60;5.85;;;;;;;26.58;51.89;101027.88;5051949;28;20451;-50
2022/06/23 08:29:27;;;;;;;10.48;5.45;;;;;;;26.66;51.55;101030.41;5051774;28;20056;-51
2022/06/23 08:31:57;;;;;;;10.85;5.57;;;;;;;26.65;51.05;101030.59;5051761;28;20052;-49
2022/06/23 08:34:29;;;;;;;10.63;5.25;;;;;;;26.89;51.36;101036.53;5051824;28;20431;-49
2022/06/23 08:37:01;;;;;;;10.10;5.55;;;;;;;27.06;51.80;101029.69;5051767;28;20041;-47
2022/06/23 08:39:35;;;;;;;10.27;5.28;;;;;;;27.30;50.53;101027.47;5051912;28;20049;-47
2022/06/23 08:42:13;;;;;;;12.55;5.13;;;;;;;27.58;51.10;101027.31;5051660;28;20049;-47
2022/06/23 08:44:51;;;;;;;9.70;5.22;;;;;;;27.82;49.28;101027.69;5050162;28;20060;-51
2022/06/23 08:47:25;;;;;;;8.15;5.30;;;;;;;27.94;49.47;101026.00;5051578;28;20055;-49
2022/06/23 08:49:59;;;;;;;10.82;5.53;;;;;;;28.12;48.18;101025.34;5051703;28;20059;-50
2022/06/23 08:52:34;;;;;;;11.43;5.22;;;;;;;28.30;47.87;101023.84;5051522;28;20053;-51
2022/06/23 08:55:07;;;;;;;13.80;5.35;;;;;;;28.43;48.26;101029.22;5051875;28;20140;-48
2022/06/23 08:57:54;;;;;;;10.88;5.45;;;;;;;28.51;48.76;101030.84;5051516;28;20124;-51
2022/06/23 09:00:34;;;;;;;11.05;5.25;;;;;;;28.40;48.34;101026.09;5051516;28;20049;-51
2022/06/23 09:03:13;;;;;;;10.60;5.68;;;;;;;28.57;47.96;101023.75;5051541;28;20128;-51
2022/06/23 09:05:50;;;;;;;11.63;5.03;;;;;;;28.75;48.76;101025.75;5051495;28;20091;-48
2022/06/23 09:08:24;;;;;;;9.88;4.82;;;;;;;29.02;47.91;101018.31;5051112;28;20047;-49
2022/06/23 09:11:21;;;;;;;10.77;4.45;;;;;;;29.08;47.13;101016.59;5051219;28;20115;-47
2022/06/23 09:14:04;;;;;;;9.93;5.22;;;;;;;29.12;45.03;101026.78;5053934;28;20045;-49
2022/06/23 09:16:50;;;;;;;9.15;4.40;;;;;;;29.20;45.93;101025.69;5054830;28;20048;-47
2022/06/23 09:19:41;;;;;;;12.13;4.00;;;;;;;29.47;46.47;101020.91;5054522;28;20049;-50
2022/06/23 09:22:27;;;;;;;8.77;3.97;;;;;;;29.59;45.02;101020.19;5054568;28;20045;-46
2022/06/23 09:25:02;;;;;;;8.68;3.53;;;;;;;29.75;44.67;101024.19;5054913;28;20422;-49
2022/06/23 09:27:48;;;;;;;8.63;3.47;;;;;;;29.51;44.42;101018.59;5054758;28;20055;-52
2022/06/23 09:30:21;;;;;;;12.07;4.88;;;;;;;29.45;44.64;101019.47;5054613;28;20048;-47
2022/06/23 09:32:59;;;;;;;12.35;4.47;;;;;;;29.63;46.59;101016.00;5054978;28;20488;-48
2022/06/23 09:35:50;;;;;;;10.18;4.10;;;;;;;29.67;44.58;101011.78;5054486;28;20052;-48
2022/06/23 09:38:34;;;;;;;11.35;4.38;;;;;;;29.85;43.67;101011.00;5054391;28;20048;-49
2022/06/23 09:41:12;;;;;;;10.88;4.72;;;;;;;30.07;43.27;101005.97;5054497;28;20499;-51
2022/06/23 09:44:13;;;;;;;10.38;4.68;;;;;;;30.18;43.59;101007.09;5052920;28;20059;-51
2022/06/23 09:47:10;;;;;;;11.35;4.50;;;;;;;30.44;43.48;101005.97;5054331;28;20049;-49
2022/06/23 09:49:57;;;;;;;21.77;6.32;;;;;;;30.14;42.90;101008.59;5054201;28;20059;-48
2022/06/23 09:53:09;;;;;;;9.95;4.35;;;;;;;30.59;42.77;101002.84;5054182;28;20064;-53
2022/06/23 09:56:15;;;;;;;13.25;4.80;;;;;;;30.74;42.49;101010.56;5011970;28;20046;-50
2022/06/23 09:59:12;;;;;;;13.02;4.35;;;;;;;30.95;42.24;101000.25;5008715;28;20062;-50
2022/06/23 10:01:50;;;;;;;13.65;4.60;;;;;;;30.99;41.94;100998.72;5050158;28;20061;-51
2022/06/23 10:04:43;;;;;;;15.48;4.75;;;;;;;31.09;41.48;100995.50;5054092;28;20128;-51
2022/06/23 10:07:51;;;;;;;36.42;7.72;;;;;;;31.19;41.64;101001.16;5053632;28;20045;-51
2022/06/23 10:10:33;;;;;;;12.93;5.55;;;;;;;31.45;40.63;100996.34;5047740;28;20057;-52
2022/06/23 10:13:37;;;;;;;8.63;3.70;;;;;;;31.60;41.05;100991.28;5053702;28;20048;-48
2022/06/23 10:16:25;;;;;;;11.00;4.15;;;;;;;32.12;41.33;100984.25;5053437;28;20102;-52
2022/06/23 10:19:17;;;;;;;15.07;4.32;;;;;;;31.91;40.56;100985.72;5053501;28;20071;-53
2022/06/23 10:21:57;;;;;;;10.98;4.47;;;;;;;32.08;40.10;100978.44;5053353;28;20251;-50
2022/06/23 10:24:41;;;;;;;11.82;4.40;;;;;;;32.47;39.06;100977.88;5052824;28;20053;-52
2022/06/23 10:27:26;;;;;;;12.00;4.20;;;;;;;32.73;38.93;100976.47;5051949;28;20103;-51
2022/06/23 10:30:13;;;;;;;12.52;5.00;;;;;;;32.95;38.26;100973.03;5053230;28;20041;-50
2022/06/23 10:33:31;;;;;;;12.68;4.10;;;;;;;33.26;37.79;100963.50;5052898;28;20044;-52
2022/06/23 10:36:17;;;;;;;10.63;4.43;;;;;;;33.15;37.99;100967.13;5053229;28;20507;-51
2022/06/23 10:38:57;;;;;;;9.35;3.22;;;;;;;33.16;37.48;100961.41;5052784;28;20466;-49
2022/06/23 10:41:46;;;;;;;12.38;3.72;;;;;;;32.84;39.02;100961.16;5053145;28;20048;-52
2022/06/23 10:44:59;;;;;;;12.75;3.67;;;;;;;33.25;37.51;100959.13;5052568;28;20091;-48
2022/06/23 10:47:50;;;;;;;9.52;3.25;;;;;;;33.59;38.06;100950.88;5028147;28;20511;-51
2022/06/23 10:50:37;;;;;;;7.68;3.40;;;;;;;33.62;36.89;100950.38;5051480;28;20388;-50
2022/06/23 10:53:44;;;;;;;8.20;2.80;;;;;;;33.62;36.49;100942.19;5052845;28;20404;-52
2022/06/23 10:56:31;;;;;;;8.18;3.30;;;;;;;33.33;36.76;100947.78;5053160;28;20554;-52
2022/06/23 10:59:20;;;;;;;8.63;3.20;;;;;;;33.58;34.99;100941.06;5052645;28;20049;-51
2022/06/23 11:02:08;;;;;;;9.23;3.25;;;;;;;33.29;35.86;100937.66;5053071;28;20048;-52
2022/06/23 11:05:07;;;;;;;7.00;2.90;;;;;;;33.34;35.90;100929.56;5052694;28;20060;-49
2022/06/23 11:07:51;;;;;;;11.32;3.10;;;;;;;33.72;35.25;100930.63;5051531;28;20052;-51
2022/06/23 11:10:40;;;;;;;12.05;3.60;;;;;;;33.90;35.49;100926.78;5052617;28;20049;-49
2022/06/23 11:13:25;;;;;;;8.20;3.08;;;;;;;34.07;34.61;100923.97;5052833;28;20437;-46
2022/06/23 11:16:01;;;;;;;9.98;3.40;;;;;;;34.26;34.73;100926.34;5052819;28;20057;-51
2022/06/23 11:18:46;;;;;;;8.63;3.15;;;;;;;34.09;34.53;100923.72;5052530;28;20041;-52
2022/06/23 11:21:31;;;;;;;8.38;3.00;;;;;;;34.37;33.75;100914.47;5052698;28;20051;-50
2022/06/23 11:24:05;;;;;;;8.63;3.05;;;;;;;34.25;33.28;100913.78;5052914;28;20049;-53
2022/06/23 11:26:46;;;;;;;8.00;3.35;;;;;;;34.29;34.06;100932.13;5052670;28;20060;-53
2022/06/23 11:29:32;;;;;;;8.63;3.65;;;;;;;34.36;34.67;100921.84;5052603;28;20515;-48
2022/06/23 11:32:19;;;;;;;9.95;3.30;;;;;;;34.49;33.06;100914.34;5052562;28;20043;-52
2022/06/23 11:35:04;;;;;;;7.32;3.00;;;;;;;34.66;32.57;100914.19;5051637;28;20468;-52
2022/06/23 11:37:49;;;;;;;7.22;3.13;;;;;;;34.90;34.44;100913.88;5052305;28;20052;-51
2022/06/23 11:40:39;;;;;;;10.60;3.38;;;;;;;34.92;32.23;100911.69;5052206;28;20507;-50
2022/06/23 11:43:16;;;;;;;9.57;3.05;;;;;;;34.70;32.41;100898.94;5052143;28;20049;-52
2022/06/23 11:45:57;;;;;;;10.10;3.47;;;;;;;34.42;33.05;100897.34;5052387;28;20049;-53
2022/06/23 11:48:48;;;;;;;7.43;2.85;;;;;;;34.92;33.25;100896.16;5052086;28;20037;-53
2022/06/23 11:51:29;;;;;;;8.32;3.13;;;;;;;35.03;33.98;100891.59;5052186;28;20144;-52
2022/06/23 11:54:13;;;;;;;11.18;3.30;;;;;;;35.05;33.46;100883.94;5052122;28;20048;-50
2022/06/23 11:56:57;;;;;;;11.55;3.22;;;;;;;35.67;32.66;100887.03;5052185;28;20059;-51
2022/06/23 11:59:40;;;;;;;9.77;3.50;;;;;;;35.65;31.45;100894.69;5051990;28;20107;-47
2022/06/23 12:02:29;;;;;;;10.05;3.50;;;;;;;35.65;31.84;100892.75;5052130;28;20499;-51
2022/06/23 12:05:16;;;;;;;8.02;3.30;;;;;;;35.12;32.19;100889.19;5052022;28;20131;-51
2022/06/23 12:08:09;;;;;;;10.85;3.75;;;;;;;35.50;31.72;100879.84;5051927;28;20107;-53
2022/06/23 12:10:38;;;;;;;11.05;3.67;;;;;;;35.73;31.33;100877.75;5052022;28;20048;-49
2022/06/23 12:13:07;;;;;;;10.23;3.42;;;;;;;35.91;31.48;100878.38;5052181;28;20765;-52
2022/06/23 12:15:41;;;;;;;10.73;3.40;;;;;;;35.93;30.89;100881.66;5051783;28;20052;-49
2022/06/23 12:18:13;;;;;;;9.15;2.95;;;;;;;36.01;30.85;100881.13;5051908;28;20052;-51